Bodega Marine Reserve, California Weather observations

Data are for 10 minute period ending at time listed.
 Day   Time   Solar   Ave.   Ave.  Ave.  Vector  Max.   Baro.   Total    
  of    of     Rad.   Air    Rel.  Wind   Wind   Wind  Press.  Precip.   
Year   Day            Temp.  Hum.  Speed  Dir.   Gust                    
2016   (PST)  Kw/m2    F      %     mph   deg.    mph    mb.     in.     
-------------------------------------------------------------------------
 239    7:10   0.00   58.5    86    7.9   139    11.2   1010.8    0.00 
 239    7:20   0.01   58.5    84    7.0   137    11.0   1010.8    0.00 
 239    7:30   0.01   58.6    84    6.2   139     9.9   1010.8    0.00 
 239    7:40   0.01   58.7    84    6.5   139     8.8   1010.8    0.00 
 239    7:50   0.03   58.8    85    8.2   146    11.0   1010.8    0.00 
 239    8:00   0.03   58.8    83    7.3   147    10.3   1010.8    0.00 
 239    8:10   0.04   59.0    82    7.1   153    10.9   1010.8    0.00 
 239    8:20   0.04   59.1    84    7.0   144     9.6   1011.2    0.00 
 239    8:30   0.04   59.1    86    7.9   140    10.4   1011.2    0.00 
 239    8:40   0.06   59.1    86    7.4   138     9.7   1011.2    0.00 
 239    8:50   0.06   59.2    86    7.1   148     9.6   1011.2    0.00 
 239    9:00   0.07   59.4    86    6.4   139     8.3   1011.5    0.00 
 239    9:10   0.07   59.6    84    6.3   137     7.8   1011.5    0.00 
 239    9:20   0.08   59.6    85    6.6   140     8.8   1011.5    0.00 
 239    9:30   0.08   59.8    85    6.0   144     8.6   1011.5    0.00 
 239    9:40   0.08   59.6    86    7.1   143     9.9   1011.5    0.00 
 239    9:50   0.12   59.9    85    7.8   150    12.6   1011.5    0.00 
 239   10:00   0.10   60.2    84    7.6   150    11.7   1011.5    0.00 
 239   10:10   0.15   60.4    84    6.9   148    10.2   1011.5    0.00 
 239   10:20   0.16   60.6    83    8.2   142    11.7   1011.9    0.00 
 239   10:30   0.13   60.5    82    8.4   136    10.9   1011.9    0.00 
 239   10:40   0.17   60.6    84    7.1   149    10.4   1012.2    0.00 
 239   10:50   0.19   61.1    83    7.6   157    10.5   1012.2    0.00 
 239   11:00   0.18   61.3    81    7.5   157    12.1   1012.2    0.00 
 239   11:10   0.14   61.0    83    7.0   155    11.4   1012.2    0.00 
 239   11:20   0.16   60.7    84    6.3   154     9.7   1012.5    0.00 
 239   11:30   0.16   61.2    82    7.1   150    12.2   1012.5    0.00 
 239   11:40   0.23   61.4    82    7.6   149    11.2   1012.5    0.00 
 239   11:50   0.21   62.0    80    8.7   148    14.4   1012.5    0.00 
 239   12:00   0.19   61.6    82    7.5   157    11.7   1012.5    0.00 
 239   12:10   0.25   61.4    83    8.0   156    11.9   1012.5    0.00 
 239   12:20   0.28   61.9    82    8.7   156    12.6   1012.9    0.00 
 239   12:30   0.24   62.0    82    7.0   168    10.7   1012.9    0.00 
 239   12:40   0.24   62.2    81    6.1   160    10.5   1012.9    0.00 
 239   12:50   0.23   61.6    83    8.0   155    12.8   1012.5    0.00 
 239   13:00   0.31   61.7    83    7.8   152    12.3   1012.5    0.00 
 239   13:10   0.37   62.2    82    8.8   160    13.6   1012.5    0.00 
 239   13:20   0.32   62.7    80    8.0   166    12.9   1012.5    0.00 
 239   13:30   0.24   62.6    81    7.1   164    11.6   1012.5    0.00 
 239   13:40   0.31   62.1    82    9.2   154    14.1   1012.5    0.00 
 239   13:50   0.30   62.0    82    9.4   158    13.4   1012.5    0.00 
 239   14:00   0.31   62.2    81    8.4   156    11.8   1012.5    0.00 
 239   14:10   0.28   62.3    81    8.4   167    13.0   1012.5    0.00 
 239   14:20   0.31   62.4    81    7.5   172    13.0   1012.5    0.00 
 239   14:30   0.30   62.5    81    7.1   169    10.7   1012.5    0.00 
 239   14:40   0.30   62.8    80    7.2   161    10.7   1012.2    0.00 
 239   14:50   0.37   63.4    79    7.5   166    11.7   1012.2    0.00 
 239   15:00   0.33   63.4    78    7.6   161    11.8   1012.2    0.00 
 239   15:10   0.27   62.7    80    8.2   160    12.9   1012.2    0.00 
 239   15:20   0.31   62.5    81    7.8   161    11.3   1012.2    0.00 
 239   15:30   0.29   62.5    81    8.5   167    13.3   1012.2    0.00 
 239   15:40   0.22   62.1    82    7.3   162    12.9   1012.2    0.00 
 239   15:50   0.22   62.1    82    5.6   167     9.6   1012.2    0.00 
 239   16:00   0.21   62.7    80    5.0   170     8.5   1012.2    0.00 
 239   16:10   0.21   62.4    80    5.9   166     9.6   1012.2    0.00 
 239   16:20   0.23   62.3    80    6.1   161     9.7   1011.9    0.00 
 239   16:30   0.19   62.2    80    4.4   161     7.9   1012.2    0.00 
 239   16:40   0.17   61.6    82    5.3   165     8.8   1012.2    0.00 
 239   16:50   0.15   61.5    82    4.6   158     7.9   1012.2    0.00 
 239   17:00   0.14   61.5    83    4.2   165     6.0   1011.9    0.00 
 239   17:10   0.11   61.7    82    4.3   194     7.4   1011.9    0.00 
 239   17:20   0.10   61.5    82    4.2   165     8.3   1011.9    0.00 
 239   17:30   0.09   61.0    83    5.3   162     8.8   1011.9    0.00 
 239   17:40   0.08   60.9    84    5.3   171     9.0   1011.9    0.00 
 239   17:50   0.07   60.9    83    5.5   170     8.9   1011.9    0.00 
 239   18:00   0.07   60.8    83    5.8   160     8.8   1011.9    0.00 
 239   18:10   0.07   60.9    83    5.6   165     8.9   1011.9    0.00 
 239   18:20   0.06   60.7    84    4.8   169     7.2   1011.9    0.00 
 239   18:30   0.05   60.7    84    4.6   168     7.1   1011.9    0.00 
 239   18:40   0.04   60.5    85    4.4   168     8.4   1011.9    0.00 
 239   18:50   0.03   60.2    85    4.4   165     7.6   1011.9    0.00 
 239   19:00   0.02   60.1    85    4.7   169     7.2   1011.5    0.00 
 239   19:10   0.01   59.9    83    4.6   173     8.3   1011.9    0.00 
 239   19:20   0.01   59.8    84    4.3   171     6.5   1011.9    0.00 
 239   19:30   0.00   59.7    85    4.1   172     6.4   1011.9    0.00 
 239   19:40   0.00   59.6    85    3.4   179     7.0   1011.9    0.00 
 239   19:50   0.00   59.6    84    3.1   182     5.0   1011.9    0.00 
 239   20:00   0.00   59.5    83    3.0   177     6.6   1011.9    0.00 
 239   20:10   0.00   59.5    82    4.0   189     7.8   1012.2    0.00 
 239   20:20   0.00   59.5    82    3.9   185     6.9   1012.2    0.00 
 239   20:30   0.00   59.6    82    5.3   171    10.1   1012.2    0.00 
 239   20:40   0.00   59.5    82    4.9   183     7.2   1012.2    0.00 
 239   20:50   0.00   59.6    82    3.0   194     5.5   1012.2    0.00 
 239   21:00   0.00   59.5    82    4.3   185     7.6   1012.5    0.00 
 239   21:10   0.00   59.5    82    3.9   185     6.7   1012.5    0.00 
 239   21:20   0.00   59.5    82    4.1   185     7.4   1012.5    0.00 
 239   21:30   0.00   59.5    82    4.6   182     7.7   1012.5    0.00 
 239   21:40   0.00   59.6    82    3.5   161     6.1   1012.9    0.00 
 239   21:50   0.00   59.6    82    4.9   170     7.2   1012.9    0.00 
 239   22:00   0.00   59.6    83    3.1   176     4.8   1012.9    0.00 
 239   22:10   0.00   59.6    83    3.1   187     4.7   1012.9    0.00 
 239   22:20   0.00   59.6    84    2.4   180     4.4   1012.9    0.00 
 239   22:30   0.00   59.5    84    3.4   178     6.2   1012.9    0.00 
 239   22:40   0.00   59.5    84    3.0   172     5.8   1012.9    0.00 
 239   22:50   0.00   59.5    84    4.5   164     7.7   1012.9    0.00 
 239   23:00   0.00   59.6    84    4.0   191     8.0   1012.9    0.00 
 239   23:10   100.00  99999.0   99999  99999.0   99999   99999.0   99999.0   99999.00 
 239   23:20   100.00  99999.0   99999  99999.0   99999   99999.0   99999.0   99999.00 
 239   23:30   100.00  99999.0   99999  99999.0   99999   99999.0   99999.0   99999.00 
 239   23:40   100.00  99999.0   99999  99999.0   99999   99999.0   99999.0   99999.00 
 239   23:50   100.00  99999.0   99999  99999.0   99999   99999.0   99999.0   99999.00 
 240    0:00   0.00   59.6    84    3.3   154     7.2   1012.9    0.00 
 240    0:10   0.00   59.7    83    3.0   159     6.5   1012.9    0.00 
 240    0:20   0.00   59.8    83    2.3   145     4.4   1012.9    0.00 
 240    0:30   0.00   59.8    82    4.3   172     7.5   1012.9    0.00 
 240    0:40   0.00   60.0    82    3.4   146     5.4   1012.9    0.00 
 240    0:50   0.00   60.0    83    3.2   149     6.6   1012.9    0.00 
 240    1:00   0.00   59.9    82    2.9   161     5.0   1012.9    0.00 
 240    1:10   0.00   59.9    83    2.6   172     4.3   1012.9    0.00 
 240    1:20   0.00   59.9    83    2.5   166     4.2   1012.5    0.00 
 240    1:30   0.00   59.9    83    3.4   160     5.5   1012.5    0.00 
 240    1:40   0.00   59.9    83    2.2   171     3.9   1012.5    0.00 
 240    1:50   0.00   59.9    83    2.2   165     3.9   1012.5    0.00 
 240    2:00   0.00   59.9    83    3.0   159     5.6   1012.5    0.00 
 240    2:10   0.00   60.0    82    3.6   158     5.5   1012.5    0.00 
 240    2:20   0.00   60.0    82    2.7   178     4.4   1012.5    0.00 
 240    2:30   0.00   60.0    83    4.0   162     5.8   1012.5    0.00 
 240    2:40   0.00   60.0    83    3.5   165     5.0   1012.5    0.00 
 240    2:50   0.00   60.0    82    3.6   171     5.8   1012.5    0.00 
 240    3:00   0.00   60.0    83    3.6   146     6.4   1012.5    0.00 
 240    3:10   0.00   60.0    82    2.9   156     4.7   1012.5    0.00 
 240    3:20   0.00   60.0    82    3.2   157     5.4   1012.5    0.00 
 240    3:30   0.00   60.0    83    2.3   147     5.7   1012.5    0.00 
 240    3:40   0.00   60.0    83    2.0   150     3.1   1012.5    0.00 
 240    3:50   0.00   60.0    84    2.1   159     4.5   1012.5    0.00 
 240    4:00   0.00   59.8    85    4.7   168     7.4   1012.5    0.00 
 240    4:10   0.00   59.5    87    3.9   175     5.3   1012.5    0.00 
 240    4:20   0.00   59.4    89    3.4   159     5.8   1012.5    0.00 
 240    4:30   0.00   59.2    89    2.5   163     3.9   1012.5    0.00 
 240    4:40   0.00   59.1    89    2.5   163     4.2   1012.5    0.00 
 240    4:50   0.00   59.2    89    2.1   168     3.4   1012.5    0.00 
 240    5:00   0.00   59.1    89    2.2   155     2.9   1012.5    0.00 
 240    5:10   100.00  99999.0   99999  99999.0   99999   99999.0   99999.0   99999.00 
 240    5:20   0.00   59.2   5092    4.0   142     8.9   1469.7   23.17 
 240    5:30   0.00   59.4    83    3.6   166     6.9   1012.5    0.00 
 240    5:40   0.00   59.5    82    2.5   162     6.9   1012.5    0.00 
 240    5:50   0.00   59.5    82    2.4   167     3.7   1012.5    0.00 
 240    6:00   0.00   59.4    83    2.0   182     3.5   1012.5    0.00 
 240    6:10   0.00   59.4    84    0.6   149     1.8   1012.5    0.00 
 240    6:20   0.00   59.3    84    2.3   196     3.4   1012.5    0.00 
 240    6:30   0.00   59.2    84    1.9   180     2.9   1012.5    0.00 
 240    6:40   0.00   59.3    84    1.7   160     3.4   1012.9    0.00 
 240    6:50   0.00   59.3    84    1.9   180     3.3   1012.9    0.00 
 240    7:00   0.00   59.3    84    2.6   187     3.3   1012.9    0.00 

Return to Bodega Marine Reserve graphs page.


Western Regional Climate Center,wrcc@dri.edu